createdAt,value
2019-01-11T00:00:55.009Z,1012.90
2019-01-11T00:01:54.996Z,1012.89
2019-01-11T00:02:55.024Z,1012.91
2019-01-11T00:03:54.979Z,1012.93
2019-01-11T00:04:54.965Z,1012.85
2019-01-11T00:05:54.961Z,1012.87
2019-01-11T00:06:54.945Z,1012.87
2019-01-11T00:07:54.935Z,1012.88
2019-01-11T00:08:54.971Z,1012.93
2019-01-11T00:09:54.913Z,1012.85
2019-01-11T00:10:54.900Z,1012.87
2019-01-11T00:11:54.892Z,1012.86
2019-01-11T00:12:54.875Z,1012.87
2019-01-11T00:13:54.867Z,1012.86
2019-01-11T00:14:54.879Z,1012.84
2019-01-11T00:15:54.844Z,1012.88
2019-01-11T00:16:54.833Z,1012.86
2019-01-11T00:17:54.823Z,1012.84
2019-01-11T00:18:54.811Z,1012.84
2019-01-11T00:19:54.823Z,1012.83
2019-01-11T00:20:54.803Z,1012.82
2019-01-11T00:21:54.782Z,1012.78
2019-01-11T00:22:54.766Z,1012.78
2019-01-11T00:23:54.756Z,1012.78
2019-01-11T00:24:54.759Z,1012.76
2019-01-11T00:25:54.735Z,1012.78
2019-01-11T00:26:54.735Z,1012.75
2019-01-11T00:27:54.716Z,1012.77
2019-01-11T00:28:54.703Z,1012.70
2019-01-11T00:29:54.691Z,1012.70
2019-01-11T00:30:54.695Z,1012.70
2019-01-11T00:31:54.667Z,1012.73
2019-01-11T00:32:54.679Z,1012.68
2019-01-11T00:33:54.651Z,1012.64
2019-01-11T00:34:54.644Z,1012.67
2019-01-11T00:35:54.624Z,1012.63
2019-01-11T00:36:54.627Z,1012.71
2019-01-11T00:37:54.615Z,1012.63
2019-01-11T00:38:54.594Z,1012.68
2019-01-11T00:39:54.622Z,1012.61
2019-01-11T00:40:54.583Z,1012.58
2019-01-11T00:41:54.555Z,1012.56
2019-01-11T00:42:54.559Z,1012.57
2019-01-11T00:43:54.536Z,1012.60
2019-01-11T00:44:54.523Z,1012.57
2019-01-11T00:45:54.516Z,1012.49
2019-01-11T00:46:54.507Z,1012.52
2019-01-11T00:47:54.491Z,1012.48
2019-01-11T00:48:54.503Z,1012.48
2019-01-11T00:49:54.468Z,1012.47
2019-01-11T00:50:54.456Z,1012.45
2019-01-11T00:51:54.456Z,1012.45
2019-01-11T00:52:54.444Z,1012.50
2019-01-11T00:53:54.425Z,1012.50
2019-01-11T00:54:54.427Z,1012.48
2019-01-11T00:55:54.408Z,1012.50
2019-01-11T00:56:54.391Z,1012.47
2019-01-11T00:57:54.379Z,1012.48
2019-01-11T00:58:54.403Z,1012.46
2019-01-11T00:59:54.360Z,1012.46
2019-01-11T01:00:54.355Z,1012.48
2019-01-11T01:01:54.336Z,1012.48
2019-01-11T01:02:54.323Z,1012.44
2019-01-11T01:03:54.316Z,1012.45
2019-01-11T01:04:54.326Z,1012.42
2019-01-11T01:05:54.327Z,1012.45
2019-01-11T01:06:54.279Z,1012.44
2019-01-11T01:07:54.276Z,1012.41
2019-01-11T01:08:54.262Z,1012.41
2019-01-11T01:09:54.248Z,1012.46
2019-01-11T01:10:54.244Z,1012.43
2019-01-11T01:11:54.239Z,1012.44
2019-01-11T01:12:54.235Z,1012.40
2019-01-11T01:13:54.207Z,1012.39
2019-01-11T01:14:54.191Z,1012.42
2019-01-11T01:15:54.179Z,1012.37
2019-01-11T01:16:54.175Z,1012.42
2019-01-11T01:17:54.172Z,1012.36
2019-01-11T01:18:54.148Z,1012.42
2019-01-11T01:19:54.140Z,1012.39
2019-01-11T01:20:54.128Z,1012.37
2019-01-11T01:21:54.115Z,1012.35
2019-01-11T01:22:54.124Z,1012.37
2019-01-11T01:23:54.112Z,1012.38
2019-01-11T01:24:54.084Z,1012.33
2019-01-11T01:25:54.096Z,1012.42
2019-01-11T01:26:54.060Z,1012.35
2019-01-11T01:27:54.048Z,1012.35
2019-01-11T01:28:54.071Z,1012.41
2019-01-11T01:29:54.035Z,1012.33
2019-01-11T01:30:54.026Z,1012.32
2019-01-11T01:31:54.008Z,1012.33
2019-01-11T01:32:53.997Z,1012.41
2019-01-11T01:33:53.987Z,1012.35
2019-01-11T01:34:53.996Z,1012.34
2019-01-11T01:35:53.963Z,1012.30
2019-01-11T01:36:53.971Z,1012.33
2019-01-11T01:37:53.940Z,1012.27
2019-01-11T01:38:53.927Z,1012.24
2019-01-11T01:39:53.923Z,1012.29
2019-01-11T01:40:53.945Z,1012.26
2019-01-11T01:41:53.902Z,1012.25
2019-01-11T01:42:53.891Z,1012.18
2019-01-11T01:43:53.877Z,1012.23
2019-01-11T01:44:53.863Z,1012.15
2019-01-11T01:45:53.855Z,1012.25
2019-01-11T01:46:53.870Z,1012.19
2019-01-11T01:47:53.830Z,1012.21
2019-01-11T01:48:53.824Z,1012.24
2019-01-11T01:49:53.807Z,1012.22
2019-01-11T01:50:53.799Z,1012.12
2019-01-11T01:51:53.787Z,1012.16
2019-01-11T01:52:53.798Z,1012.13
2019-01-11T01:53:53.767Z,1012.16
2019-01-11T01:54:53.776Z,1012.07
2019-01-11T01:55:53.743Z,1012.11
2019-01-11T01:56:53.735Z,1012.07
2019-01-11T01:57:53.730Z,1012.09
2019-01-11T01:58:53.712Z,1012.08
2019-01-11T01:59:53.698Z,1012.01
2019-01-11T02:00:53.700Z,1012.04
2019-01-11T02:01:53.679Z,1012.00
2019-01-11T02:02:53.685Z,1011.99
2019-01-11T02:03:53.655Z,1012.00
2019-01-11T02:04:53.652Z,1012.00
2019-01-11T02:05:53.638Z,1011.96
2019-01-11T02:06:53.641Z,1011.93
2019-01-11T02:07:53.611Z,1011.95
2019-01-11T02:08:53.622Z,1011.91
2019-01-11T02:09:53.592Z,1011.93
2019-01-11T02:10:53.579Z,1011.93
2019-01-11T02:11:53.587Z,1011.85
2019-01-11T02:12:53.563Z,1011.87
2019-01-11T02:13:53.547Z,1011.91
2019-01-11T02:14:53.555Z,1011.88
2019-01-11T02:15:53.528Z,1011.92
2019-01-11T02:16:53.521Z,1011.89
2019-01-11T02:17:53.502Z,1011.86
2019-01-11T02:18:53.510Z,1011.84
2019-01-11T02:19:53.487Z,1011.86
2019-01-11T02:20:53.495Z,1011.80
2019-01-11T02:21:53.459Z,1011.85
2019-01-11T02:22:53.455Z,1011.78
2019-01-11T02:23:53.440Z,1011.79
2019-01-11T02:24:53.431Z,1011.80
2019-01-11T02:25:53.427Z,1011.75
2019-01-11T02:26:53.418Z,1011.76
2019-01-11T02:27:53.394Z,1011.80
2019-01-11T02:28:53.385Z,1011.77
2019-01-11T02:29:53.371Z,1011.79
2019-01-11T02:30:53.364Z,1011.75
2019-01-11T02:31:53.379Z,1011.71
2019-01-11T02:32:53.447Z,1011.75
2019-01-11T02:33:53.333Z,1011.75
2019-01-11T02:34:53.320Z,1011.74
2019-01-11T02:35:53.310Z,1011.72
2019-01-11T02:36:53.298Z,1011.79
2019-01-11T02:37:53.324Z,1011.75
2019-01-11T02:38:53.276Z,1011.75
2019-01-11T02:39:53.263Z,1011.74
2019-01-11T02:40:53.254Z,1011.76
2019-01-11T02:41:53.244Z,1011.76
2019-01-11T02:42:53.231Z,1011.77
2019-01-11T02:43:53.247Z,1011.73
2019-01-11T02:44:53.212Z,1011.70
2019-01-11T02:45:53.223Z,1011.73
2019-01-11T02:46:53.188Z,1011.67
2019-01-11T02:47:53.174Z,1011.71
2019-01-11T02:48:53.179Z,1011.70
2019-01-11T02:49:53.189Z,1011.67
2019-01-11T02:50:53.145Z,1011.75
2019-01-11T02:51:53.130Z,1011.68
2019-01-11T02:52:53.123Z,1011.71
2019-01-11T02:53:53.112Z,1011.67
2019-01-11T02:54:53.098Z,1011.65
2019-01-11T02:55:53.106Z,1011.67
2019-01-11T02:56:53.078Z,1011.60
2019-01-11T02:57:53.083Z,1011.63
2019-01-11T02:58:53.058Z,1011.56
2019-01-11T02:59:53.047Z,1011.63
2019-01-11T03:00:53.047Z,1011.56
2019-01-11T03:01:53.046Z,1011.50
2019-01-11T03:02:53.014Z,1011.52
2019-01-11T03:03:53.002Z,1011.51
2019-01-11T03:04:52.991Z,1011.51
2019-01-11T03:05:52.983Z,1011.53
2019-01-11T03:06:52.979Z,1011.48
2019-01-11T03:07:52.970Z,1011.53
2019-01-11T03:08:52.962Z,1011.52
2019-01-11T03:09:52.938Z,1011.51
2019-01-11T03:10:52.928Z,1011.45
2019-01-11T03:11:52.932Z,1011.46
2019-01-11T03:12:52.914Z,1011.52
2019-01-11T03:13:52.896Z,1011.44
2019-01-11T03:14:52.883Z,1011.46
2019-01-11T03:15:52.870Z,1011.50
2019-01-11T03:16:52.863Z,1011.39
2019-01-11T03:17:52.866Z,1011.44
2019-01-11T03:18:52.848Z,1011.39
2019-01-11T03:19:52.829Z,1011.40
2019-01-11T03:20:52.817Z,1011.40
2019-01-11T03:21:52.806Z,1011.41
2019-01-11T03:22:52.854Z,1011.38
2019-01-11T03:23:52.785Z,1011.38
2019-01-11T03:24:52.791Z,1011.39
2019-01-11T03:25:52.762Z,1011.34
2019-01-11T03:26:52.754Z,1011.31
2019-01-11T03:27:52.759Z,1011.28
2019-01-11T03:28:52.746Z,1011.31
2019-01-11T03:29:52.722Z,1011.32
2019-01-11T03:30:52.718Z,1011.30
2019-01-11T03:31:52.713Z,1011.39
2019-01-11T03:32:52.687Z,1011.33
2019-01-11T03:33:52.674Z,1011.31
2019-01-11T03:34:52.680Z,1011.24
2019-01-11T03:35:52.655Z,1011.30
2019-01-11T03:36:52.658Z,1011.25
2019-01-11T03:37:52.629Z,1011.23
2019-01-11T03:38:52.618Z,1011.23
2019-01-11T03:39:52.610Z,1011.23
2019-01-11T03:40:52.622Z,1011.21
2019-01-11T03:41:52.588Z,1011.18
2019-01-11T03:42:52.582Z,1011.20
2019-01-11T03:43:52.574Z,1011.23
2019-01-11T03:44:52.554Z,1011.20
2019-01-11T03:45:52.543Z,1011.17
2019-01-11T03:46:52.544Z,1011.17
2019-01-11T03:47:52.523Z,1011.11
2019-01-11T03:48:52.510Z,1011.12
2019-01-11T03:49:54.988Z,1011.10
2019-01-11T03:50:52.503Z,1011.17
2019-01-11T03:51:52.505Z,1011.10
2019-01-11T03:52:52.466Z,1011.08
2019-01-11T03:53:52.454Z,1011.08
2019-01-11T03:54:52.488Z,1011.06
2019-01-11T03:55:52.434Z,1011.10
2019-01-11T03:56:52.434Z,1011.06
2019-01-11T03:57:52.439Z,1011.07
2019-01-11T03:58:52.403Z,1011.03
2019-01-11T03:59:52.392Z,1011.06
2019-01-11T04:00:52.382Z,1011.05
2019-01-11T04:01:52.370Z,1011.06
2019-01-11T04:02:52.398Z,1011.04
2019-01-11T04:03:52.373Z,1011.03
2019-01-11T04:04:52.335Z,1011.00
2019-01-11T04:05:52.325Z,1011.00
2019-01-11T04:06:52.314Z,1011.04
2019-01-11T04:07:52.302Z,1011.06
2019-01-11T04:08:52.311Z,1011.03
2019-01-11T04:09:52.295Z,1011.05
2019-01-11T04:10:52.271Z,1011.00
2019-01-11T04:11:52.259Z,1011.01
2019-01-11T04:12:52.255Z,1010.98
2019-01-11T04:13:52.240Z,1011.00
2019-01-11T04:14:52.271Z,1010.99
2019-01-11T04:15:52.226Z,1010.95
2019-01-11T04:16:52.217Z,1010.94
2019-01-11T04:17:52.194Z,1010.99
2019-01-11T04:18:52.182Z,1010.94
2019-01-11T04:19:52.175Z,1010.91
2019-01-11T04:20:52.170Z,1010.94
2019-01-11T04:21:52.159Z,1010.89
2019-01-11T04:22:52.144Z,1010.95
2019-01-11T04:23:52.128Z,1010.93
2019-01-11T04:24:52.131Z,1010.86
2019-01-11T04:25:52.122Z,1010.88
2019-01-11T04:26:52.094Z,1010.80
2019-01-11T04:27:52.083Z,1010.81
2019-01-11T04:28:52.085Z,1010.83
2019-01-11T04:29:52.062Z,1010.88
2019-01-11T04:30:52.090Z,1010.87
2019-01-11T04:31:52.060Z,1010.87
2019-01-11T04:32:52.026Z,1010.85
2019-01-11T04:33:52.018Z,1010.94
2019-01-11T04:34:52.014Z,1010.86
2019-01-11T04:35:51.995Z,1010.89
2019-01-11T04:36:51.992Z,1010.96
2019-01-11T04:37:51.983Z,1010.94
2019-01-11T04:38:51.963Z,1010.95
2019-01-11T04:39:51.951Z,1010.95
2019-01-11T04:40:51.950Z,1010.90
2019-01-11T04:41:51.932Z,1010.86
2019-01-11T04:42:51.921Z,1010.87
2019-01-11T04:43:51.914Z,1010.84
2019-01-11T04:44:51.898Z,1010.78
2019-01-11T04:45:51.882Z,1010.75
2019-01-11T04:46:51.878Z,1010.75
2019-01-11T04:47:51.863Z,1010.75
2019-01-11T04:48:51.865Z,1010.65
2019-01-11T04:49:51.838Z,1010.74
2019-01-11T04:50:51.826Z,1010.71
2019-01-11T04:51:51.818Z,1010.70
2019-01-11T04:52:51.814Z,1010.69
2019-01-11T04:53:51.800Z,1010.63
2019-01-11T04:54:51.797Z,1010.68
2019-01-11T04:55:51.778Z,1010.68
2019-01-11T04:56:51.762Z,1010.62
2019-01-11T04:57:51.749Z,1010.70
2019-01-11T04:58:51.740Z,1010.64
2019-01-11T04:59:51.726Z,1010.62
2019-01-11T05:00:51.722Z,1010.63
2019-01-11T05:01:51.706Z,1010.58
2019-01-11T05:02:51.695Z,1010.54
2019-01-11T05:03:51.682Z,1010.57
2019-01-11T05:04:51.678Z,1010.53
2019-01-11T05:05:51.675Z,1010.60
2019-01-11T05:06:51.650Z,1010.57
2019-01-11T05:07:51.641Z,1010.62
2019-01-11T05:08:51.626Z,1010.53
2019-01-11T05:09:51.621Z,1010.56
2019-01-11T05:10:51.610Z,1010.54
2019-01-11T05:11:51.628Z,1010.56
2019-01-11T05:12:51.582Z,1010.51
2019-01-11T05:13:51.569Z,1010.53
2019-01-11T05:14:51.559Z,1010.53
2019-01-11T05:15:51.550Z,1010.50
2019-01-11T05:16:51.547Z,1010.48
2019-01-11T05:17:51.555Z,1010.50
2019-01-11T05:18:51.538Z,1010.44
2019-01-11T05:19:51.507Z,1010.50
2019-01-11T05:20:51.493Z,1010.46
2019-01-11T05:21:51.482Z,1010.52
2019-01-11T05:22:51.469Z,1010.53
2019-01-11T05:23:51.486Z,1010.55
2019-01-11T05:24:51.452Z,1010.47
2019-01-11T05:25:51.437Z,1010.42
2019-01-11T05:26:51.426Z,1010.43
2019-01-11T05:27:51.427Z,1010.40
2019-01-11T05:28:51.426Z,1010.37
2019-01-11T05:29:51.398Z,1010.40
2019-01-11T05:30:51.382Z,1010.46
2019-01-11T05:31:51.369Z,1010.33
2019-01-11T05:32:51.362Z,1010.40
2019-01-11T05:33:51.359Z,1010.38
2019-01-11T05:34:51.350Z,1010.37
2019-01-11T05:35:51.335Z,1010.37
2019-01-11T05:36:51.318Z,1010.40
2019-01-11T05:37:51.306Z,1010.31
2019-01-11T05:38:51.298Z,1010.41
2019-01-11T05:39:51.306Z,1010.42
2019-01-11T05:40:51.270Z,1010.46
2019-01-11T05:41:51.279Z,1010.39
2019-01-11T05:42:51.250Z,1010.41
2019-01-11T05:43:51.238Z,1010.38
2019-01-11T05:44:51.230Z,1010.38
2019-01-11T05:45:51.231Z,1010.37
2019-01-11T05:46:51.210Z,1010.37
2019-01-11T05:47:51.219Z,1010.32
2019-01-11T05:48:51.184Z,1010.34
2019-01-11T05:49:51.170Z,1010.40
2019-01-11T05:50:51.182Z,1010.37
2019-01-11T05:51:51.151Z,1010.38
2019-01-11T05:52:51.145Z,1010.39
2019-01-11T05:53:51.142Z,1010.47
2019-01-11T05:54:51.118Z,1010.46
2019-01-11T05:55:51.109Z,1010.42
2019-01-11T05:56:51.111Z,1010.43
2019-01-11T05:57:51.090Z,1010.39
2019-01-11T05:58:51.071Z,1010.38
2019-01-11T05:59:51.078Z,1010.44
2019-01-11T06:00:51.078Z,1010.38
2019-01-11T06:01:51.055Z,1010.33
2019-01-11T06:02:51.027Z,1010.38
2019-01-11T06:03:51.017Z,1010.41
2019-01-11T06:04:51.007Z,1010.36
2019-01-11T06:05:51.027Z,1010.34
2019-01-11T06:06:50.984Z,1010.39
2019-01-11T06:07:50.986Z,1010.38
2019-01-11T06:08:50.971Z,1010.38
2019-01-11T06:09:50.947Z,1010.39
2019-01-11T06:10:50.935Z,1010.35
2019-01-11T06:11:50.943Z,1010.40
2019-01-11T06:12:50.920Z,1010.42
2019-01-11T06:13:50.915Z,1010.34
2019-01-11T06:14:50.903Z,1010.40
2019-01-11T06:15:50.880Z,1010.36
2019-01-11T06:16:50.887Z,1010.37
2019-01-11T06:17:50.894Z,1010.31
2019-01-11T06:18:50.870Z,1010.31
2019-01-11T06:19:50.835Z,1010.38
2019-01-11T06:20:50.827Z,1010.34
2019-01-11T06:21:50.811Z,1010.37
2019-01-11T06:22:50.835Z,1010.39
2019-01-11T06:23:50.798Z,1010.34
2019-01-11T06:24:50.794Z,1010.37
2019-01-11T06:25:50.772Z,1010.36
2019-01-11T06:26:50.805Z,1010.39
2019-01-11T06:27:50.751Z,1010.37
2019-01-11T06:28:50.751Z,1010.42
2019-01-11T06:29:50.722Z,1010.47
2019-01-11T06:30:50.727Z,1010.49
2019-01-11T06:31:50.698Z,1010.46
2019-01-11T06:32:50.690Z,1010.45
2019-01-11T06:33:50.679Z,1010.42
2019-01-11T06:34:50.687Z,1010.43
2019-01-11T06:35:50.654Z,1010.42
2019-01-11T06:36:50.662Z,1010.48
2019-01-11T06:37:50.630Z,1010.44
2019-01-11T06:38:50.623Z,1010.43
2019-01-11T06:39:50.611Z,1010.36
2019-01-11T06:40:50.627Z,1010.33
2019-01-11T06:41:50.599Z,1010.39
2019-01-11T06:42:50.579Z,1010.38
2019-01-11T06:43:50.562Z,1010.49
2019-01-11T06:44:50.558Z,1010.44
2019-01-11T06:45:50.542Z,1010.36
2019-01-11T06:46:50.558Z,1010.35
2019-01-11T06:47:50.519Z,1010.31
2019-01-11T06:48:50.506Z,1010.34
2019-01-11T06:49:50.498Z,1010.31
2019-01-11T06:50:50.499Z,1010.33
2019-01-11T06:51:50.475Z,1010.36
2019-01-11T06:52:50.506Z,1010.30
2019-01-11T06:53:50.450Z,1010.36
2019-01-11T06:54:50.438Z,1010.31
2019-01-11T06:55:50.431Z,1010.35
2019-01-11T06:56:50.418Z,1010.30
2019-01-11T06:57:50.406Z,1010.29
2019-01-11T06:58:50.427Z,1010.34
2019-01-11T06:59:50.383Z,1010.36
2019-01-11T07:00:50.374Z,1010.31
2019-01-11T07:01:50.362Z,1010.28
2019-01-11T07:02:50.354Z,1010.34
2019-01-11T07:03:50.343Z,1010.27
2019-01-11T07:04:50.362Z,1010.33
2019-01-11T07:05:50.317Z,1010.34
2019-01-11T07:06:50.306Z,1010.32
2019-01-11T07:07:50.294Z,1010.26
2019-01-11T07:08:50.290Z,1010.36
2019-01-11T07:09:50.274Z,1010.31
2019-01-11T07:10:50.299Z,1010.26
2019-01-11T07:11:50.252Z,1010.26
2019-01-11T07:12:50.241Z,1010.27
2019-01-11T07:13:50.242Z,1010.30
2019-01-11T07:14:50.214Z,1010.28
2019-01-11T07:15:50.208Z,1010.36
2019-01-11T07:16:50.225Z,1010.33
2019-01-11T07:17:50.182Z,1010.28
2019-01-11T07:18:50.169Z,1010.28
2019-01-11T07:19:50.158Z,1010.30
2019-01-11T07:20:50.146Z,1010.31
2019-01-11T07:21:50.153Z,1010.36
2019-01-11T07:22:50.137Z,1010.37
2019-01-11T07:23:50.114Z,1010.39
2019-01-11T07:24:50.101Z,1010.35
2019-01-11T07:25:50.090Z,1010.37
2019-01-11T07:26:50.101Z,1010.34
2019-01-11T07:27:50.071Z,1010.37
2019-01-11T07:28:50.073Z,1010.43
2019-01-11T07:29:50.046Z,1010.43
2019-01-11T07:30:50.042Z,1010.44
2019-01-11T07:31:50.026Z,1010.45
2019-01-11T07:32:50.041Z,1010.41
2019-01-11T07:33:50.006Z,1010.42
2019-01-11T07:34:50.006Z,1010.42
2019-01-11T07:35:49.977Z,1010.46
2019-01-11T07:36:49.974Z,1010.41
2019-01-11T07:37:49.958Z,1010.48
2019-01-11T07:38:49.967Z,1010.44
2019-01-11T07:39:49.935Z,1010.40
2019-01-11T07:40:49.941Z,1010.44
2019-01-11T07:41:50.150Z,1010.43
2019-01-11T07:42:49.901Z,1010.40
2019-01-11T07:43:49.891Z,1010.42
2019-01-11T07:44:49.893Z,1010.46
2019-01-11T07:45:49.866Z,1010.49
2019-01-11T07:46:49.881Z,1010.48
2019-01-11T07:47:49.863Z,1010.46
2019-01-11T07:48:49.834Z,1010.45
2019-01-11T07:49:49.822Z,1010.42
2019-01-11T07:50:49.833Z,1010.45
2019-01-11T07:51:49.802Z,1010.38
2019-01-11T07:52:49.805Z,1010.39
2019-01-11T07:53:49.785Z,1010.41
2019-01-11T07:54:49.766Z,1010.39
2019-01-11T07:55:49.758Z,1010.37
2019-01-11T07:56:49.758Z,1010.40
2019-01-11T07:57:49.734Z,1010.39
2019-01-11T07:58:49.730Z,1010.37
2019-01-11T07:59:49.712Z,1010.37
2019-01-11T08:00:49.698Z,1010.42
2019-01-11T08:01:49.698Z,1010.39
2019-01-11T08:02:49.677Z,1010.38
2019-01-11T08:03:49.666Z,1010.41
2019-01-11T08:04:49.683Z,1010.35
2019-01-11T08:05:49.646Z,1010.38
2019-01-11T08:06:49.651Z,1010.47
2019-01-11T08:07:49.626Z,1010.40
2019-01-11T08:08:49.610Z,1010.41
2019-01-11T08:09:49.598Z,1010.36
2019-01-11T08:10:49.606Z,1010.39
2019-01-11T08:11:49.585Z,1010.39
2019-01-11T08:12:49.594Z,1010.40
2019-01-11T08:13:49.558Z,1010.37
2019-01-11T08:14:49.551Z,1010.41
2019-01-11T08:15:49.534Z,1010.36
2019-01-11T08:16:49.546Z,1010.39
2019-01-11T08:17:49.515Z,1010.38
2019-01-11T08:18:49.510Z,1010.40
2019-01-11T08:19:49.486Z,1010.44
2019-01-11T08:20:55.987Z,1010.41
2019-01-11T08:21:50.470Z,1010.41
2019-01-11T08:22:49.488Z,1010.43
2019-01-11T08:23:49.458Z,1010.36
2019-01-11T08:24:49.430Z,1010.40
2019-01-11T08:25:49.426Z,1010.44
2019-01-11T08:26:49.409Z,1010.48
2019-01-11T08:27:49.398Z,1010.43
2019-01-11T08:28:49.402Z,1010.44
2019-01-11T08:29:49.390Z,1010.45
2019-01-11T08:30:49.369Z,1010.43
2019-01-11T08:31:49.354Z,1010.46
2019-01-11T08:32:49.370Z,1010.42
2019-01-11T08:33:49.331Z,1010.42
2019-01-11T08:34:49.350Z,1010.40
2019-01-11T08:35:49.323Z,1010.39
2019-01-11T08:36:49.310Z,1010.38
2019-01-11T08:37:49.285Z,1010.40
2019-01-11T08:38:49.275Z,1010.39
2019-01-11T08:39:49.262Z,1010.45
2019-01-11T08:40:49.270Z,1010.46
2019-01-11T08:41:49.261Z,1010.41
2019-01-11T08:42:49.263Z,1010.42
2019-01-11T08:43:49.217Z,1010.42
2019-01-11T08:44:49.205Z,1010.35
2019-01-11T08:45:49.198Z,1010.44
2019-01-11T08:46:49.212Z,1010.43
2019-01-11T08:47:49.194Z,1010.41
2019-01-11T08:48:49.162Z,1010.36
2019-01-11T08:49:49.161Z,1010.43
2019-01-11T08:50:49.142Z,1010.41
2019-01-11T08:51:49.129Z,1010.38
2019-01-11T08:52:49.162Z,1010.36
2019-01-11T08:53:49.118Z,1010.31
2019-01-11T08:54:49.093Z,1010.31
2019-01-11T08:55:49.088Z,1010.39
2019-01-11T08:56:49.078Z,1010.29
2019-01-11T08:57:49.062Z,1010.35
2019-01-11T08:58:49.077Z,1010.38
2019-01-11T08:59:49.046Z,1010.36
2019-01-11T09:00:49.030Z,1010.30
2019-01-11T09:01:49.017Z,1010.31
2019-01-11T09:02:49.006Z,1010.26
2019-01-11T09:03:49.002Z,1010.29
2019-01-11T09:04:49.034Z,1010.30
2019-01-11T09:05:48.974Z,1010.32
2019-01-11T09:06:48.962Z,1010.27
2019-01-11T09:07:48.949Z,1010.28
2019-01-11T09:08:48.945Z,1010.29
2019-01-11T09:09:48.929Z,1010.25
2019-01-11T09:10:48.950Z,1010.26
2019-01-11T09:11:48.905Z,1010.21
2019-01-11T09:12:48.893Z,1010.21
2019-01-11T09:13:48.890Z,1010.26
2019-01-11T09:14:48.873Z,1010.29
2019-01-11T09:15:49.174Z,1010.35
2019-01-11T09:16:48.882Z,1010.36
2019-01-11T09:17:48.842Z,1010.40
2019-01-11T09:18:48.830Z,1010.41
2019-01-11T09:19:48.830Z,1010.37
2019-01-11T09:20:48.826Z,1010.38
2019-01-11T09:21:48.817Z,1010.36
2019-01-11T09:22:48.806Z,1010.33
2019-01-11T09:23:48.778Z,1010.30
2019-01-11T09:24:48.762Z,1010.28
2019-01-11T09:25:48.750Z,1010.31
2019-01-11T09:26:48.737Z,1010.31
2019-01-11T09:27:48.737Z,1010.29
2019-01-11T09:28:48.733Z,1010.22
2019-01-11T09:29:48.713Z,1010.27
2019-01-11T09:30:48.695Z,1010.23
2019-01-11T09:31:48.691Z,1010.25
2019-01-11T09:32:48.687Z,1010.24
2019-01-11T09:33:48.662Z,1010.23
2019-01-11T09:34:48.683Z,1010.17
2019-01-11T09:35:48.661Z,1010.22
2019-01-11T09:36:48.634Z,1010.20
2019-01-11T09:37:48.617Z,1010.19
2019-01-11T09:38:48.629Z,1010.22
2019-01-11T09:39:48.593Z,1010.27
2019-01-11T09:40:48.602Z,1010.26
2019-01-11T09:41:48.573Z,1010.17
2019-01-11T09:42:48.562Z,1010.22
2019-01-11T09:43:48.550Z,1010.19
2019-01-11T09:44:48.553Z,1010.21
2019-01-11T09:45:48.525Z,1010.15
2019-01-11T09:46:48.533Z,1010.21
2019-01-11T09:47:48.506Z,1010.15
2019-01-11T09:48:48.494Z,1010.20
2019-01-11T09:49:48.498Z,1010.19
2019-01-11T09:50:48.472Z,1010.16
2019-01-11T09:51:48.462Z,1010.22
2019-01-11T09:52:48.473Z,1010.20
2019-01-11T09:53:48.437Z,1010.16
2019-01-11T09:54:48.425Z,1010.15
2019-01-11T09:55:48.429Z,1010.22
2019-01-11T09:56:48.406Z,1010.28
2019-01-11T09:57:48.393Z,1010.23
2019-01-11T09:58:48.410Z,1010.23
2019-01-11T09:59:48.368Z,1010.25
2019-01-11T10:00:48.401Z,1010.26
2019-01-11T10:01:48.365Z,1010.27
2019-01-11T10:02:48.340Z,1010.29
2019-01-11T10:03:48.328Z,1010.25
2019-01-11T10:04:48.326Z,1010.22
2019-01-11T10:05:48.313Z,1010.29
2019-01-11T10:06:48.321Z,1010.30
2019-01-11T10:07:48.282Z,1010.26
2019-01-11T10:08:48.271Z,1010.22
2019-01-11T10:09:48.261Z,1010.16
2019-01-11T10:10:48.265Z,1010.18
2019-01-11T10:11:48.250Z,1010.19
2019-01-11T10:12:48.269Z,1010.21
2019-01-11T10:13:48.217Z,1010.19
2019-01-11T10:14:48.205Z,1010.21
2019-01-11T10:15:48.194Z,1010.17
2019-01-11T10:16:48.200Z,1010.16
2019-01-11T10:17:48.196Z,1010.15
2019-01-11T10:18:48.162Z,1010.16
2019-01-11T10:19:48.152Z,1010.19
2019-01-11T10:20:48.140Z,1010.20
2019-01-11T10:21:48.135Z,1010.19
2019-01-11T10:22:48.125Z,1010.24
2019-01-11T10:23:48.118Z,1010.23
2019-01-11T10:24:48.094Z,1010.15
2019-01-11T10:25:48.081Z,1010.27
2019-01-11T10:26:48.074Z,1010.20
2019-01-11T10:27:48.057Z,1010.21
2019-01-11T10:28:48.073Z,1010.18
2019-01-11T10:29:48.049Z,1010.17
2019-01-11T10:30:48.027Z,1010.11
2019-01-11T10:31:48.025Z,1010.16
2019-01-11T10:32:48.003Z,1010.14
2019-01-11T10:33:47.998Z,1010.18
2019-01-11T10:34:48.026Z,1010.16
2019-01-11T10:35:47.970Z,1010.17
2019-01-11T10:36:47.957Z,1010.11
2019-01-11T10:37:47.946Z,1010.12
2019-01-11T10:38:47.953Z,1010.08
2019-01-11T10:39:47.926Z,1010.10
2019-01-11T10:40:47.954Z,1010.11
2019-01-11T10:41:47.902Z,1010.11
2019-01-11T10:42:47.889Z,1010.04
2019-01-11T10:43:47.882Z,1010.03
2019-01-11T10:44:47.881Z,1010.00
2019-01-11T10:45:47.861Z,1009.98
2019-01-11T10:46:49.172Z,1009.97
2019-01-11T10:47:47.833Z,1009.94
2019-01-11T10:48:47.825Z,1010.02
2019-01-11T10:49:47.825Z,1010.02
2019-01-11T10:50:47.801Z,1010.00
2019-01-11T10:51:47.810Z,1010.01
2019-01-11T10:52:47.833Z,1009.99
2019-01-11T10:53:47.770Z,1010.01
2019-01-11T10:54:47.757Z,1010.01
2019-01-11T10:55:47.746Z,1009.97
2019-01-11T10:56:47.734Z,1009.95
2019-01-11T10:57:47.733Z,1009.95
2019-01-11T10:58:47.725Z,1009.97
2019-01-11T10:59:47.705Z,1009.95
2019-01-11T11:00:47.741Z,1009.98
2019-01-11T11:01:47.677Z,1009.95
2019-01-11T11:02:47.693Z,1009.94
2019-01-11T11:03:47.660Z,1009.89
2019-01-11T11:04:47.667Z,1009.86
2019-01-11T11:05:47.633Z,1009.84
2019-01-11T11:06:47.621Z,1009.89
2019-01-11T11:07:47.613Z,1009.94
2019-01-11T11:08:47.613Z,1009.84
2019-01-11T11:09:47.589Z,1009.89
2019-01-11T11:10:47.625Z,1009.84
2019-01-11T11:11:47.569Z,1009.82
2019-01-11T11:12:48.336Z,1009.79
2019-01-11T11:13:47.557Z,1009.77
2019-01-11T11:14:47.537Z,1009.74
2019-01-11T11:15:47.522Z,1009.81
2019-01-11T11:16:47.529Z,1009.74
2019-01-11T11:17:47.498Z,1009.72
2019-01-11T11:18:47.497Z,1009.71
2019-01-11T11:19:47.489Z,1009.69
2019-01-11T11:20:47.465Z,1009.64
2019-01-11T11:21:47.465Z,1009.68
2019-01-11T11:22:47.457Z,1009.69
2019-01-11T11:23:48.415Z,1009.65
2019-01-11T11:24:47.421Z,1009.59
2019-01-11T11:25:47.409Z,1009.63
2019-01-11T11:26:47.409Z,1009.65
2019-01-11T11:27:47.386Z,1009.62
2019-01-11T11:28:47.386Z,1009.57
2019-01-11T11:29:47.365Z,1009.51
2019-01-11T11:30:50.930Z,1009.56
2019-01-11T11:31:47.357Z,1009.48
2019-01-11T11:32:47.377Z,1009.49
2019-01-11T11:33:47.321Z,1009.52
2019-01-11T11:34:47.329Z,1009.52
2019-01-11T11:35:47.297Z,1009.48
2019-01-11T11:36:47.289Z,1009.46
2019-01-11T11:37:47.273Z,1009.55
2019-01-11T11:38:47.279Z,1009.51
2019-01-11T11:39:47.253Z,1009.56
2019-01-11T11:40:47.261Z,1009.52
2019-01-11T11:41:47.233Z,1009.54
2019-01-11T11:42:47.261Z,1009.49
2019-01-11T11:43:47.206Z,1009.48
2019-01-11T11:44:47.213Z,1009.53
2019-01-11T11:45:47.185Z,1009.47
2019-01-11T11:46:47.189Z,1009.47
2019-01-11T11:47:47.161Z,1009.48
2019-01-11T11:48:47.154Z,1009.47
2019-01-11T11:49:47.141Z,1009.43
2019-01-11T11:50:47.149Z,1009.41
2019-01-11T11:51:47.117Z,1009.36
2019-01-11T11:52:47.129Z,1009.33
2019-01-11T11:53:47.093Z,1009.31
2019-01-11T11:54:47.085Z,1009.30
2019-01-11T11:55:47.089Z,1009.32
2019-01-11T11:56:47.077Z,1009.34
2019-01-11T11:57:47.049Z,1009.27
2019-01-11T11:58:47.073Z,1009.26
2019-01-11T11:59:47.033Z,1009.21
2019-01-11T12:00:47.017Z,1009.21
2019-01-11T12:01:47.005Z,1009.26
2019-01-11T12:02:47.006Z,1009.20
2019-01-11T12:03:46.999Z,1009.24
2019-01-11T12:04:46.993Z,1009.24
2019-01-11T12:05:46.960Z,1009.25